createdAt,value
2022-10-11T00:01:08.222Z,100763.10
2022-10-11T00:03:38.478Z,100764.83
2022-10-11T00:06:08.719Z,100767.98
2022-10-11T00:08:37.212Z,100764.45
2022-10-11T00:11:07.303Z,100757.30
2022-10-11T00:13:35.703Z,100756.34
2022-10-11T00:16:09.561Z,100754.46
2022-10-11T00:18:46.735Z,100755.80
2022-10-11T00:21:16.032Z,100757.08
2022-10-11T00:23:44.471Z,100755.70
2022-10-11T00:26:12.903Z,100753.69
2022-10-11T00:28:41.999Z,100754.05
2022-10-11T00:31:12.837Z,100758.42
2022-10-11T00:33:41.520Z,100756.75
2022-10-11T00:36:13.857Z,100754.17
2022-10-11T00:38:42.682Z,100753.41
2022-10-11T00:41:11.976Z,100750.13
2022-10-11T00:43:40.533Z,100745.87
2022-10-11T00:46:31.817Z,100748.70
2022-10-11T00:49:07.138Z,100745.83
2022-10-11T00:51:43.281Z,100747.86
2022-10-11T00:54:16.276Z,100748.79
2022-10-11T00:56:49.673Z,100745.55
2022-10-11T00:59:22.253Z,100742.23
2022-10-11T01:01:54.165Z,100736.52
2022-10-11T01:04:24.396Z,100733.42
2022-10-11T01:06:54.657Z,100728.41
2022-10-11T01:09:24.245Z,100724.21
2022-10-11T01:11:56.177Z,100721.70
2022-10-11T01:14:40.819Z,100725.11
2022-10-11T01:17:18.243Z,100721.17
2022-10-11T01:20:18.317Z,100724.95
2022-10-11T01:23:24.573Z,100722.08
2022-10-11T01:26:10.362Z,100720.42
2022-10-11T01:28:49.073Z,100715.52
2022-10-11T01:31:25.030Z,100709.27
2022-10-11T01:33:59.560Z,100713.09
2022-10-11T01:36:34.212Z,100712.04
2022-10-11T01:39:09.603Z,100702.18
2022-10-11T01:41:42.106Z,100708.23
2022-10-11T01:44:13.720Z,100715.98
2022-10-11T01:46:42.859Z,100712.40
2022-10-11T01:49:11.218Z,100713.98
2022-10-11T01:51:47.159Z,100708.90
2022-10-11T01:55:08.144Z,100706.65
2022-10-11T01:58:01.572Z,100708.95
2022-10-11T02:00:39.405Z,100710.86
2022-10-11T02:03:19.075Z,100704.10
2022-10-11T02:05:51.750Z,100701.45
2022-10-11T02:08:33.697Z,100698.70
2022-10-11T02:11:07.538Z,100698.98
2022-10-11T02:13:41.239Z,100699.67
2022-10-11T02:16:13.685Z,100697.40
2022-10-11T02:18:45.701Z,100699.36
2022-10-11T02:21:18.918Z,100691.16
2022-10-11T02:23:53.161Z,100693.25
2022-10-11T02:26:24.529Z,100687.47
2022-10-11T02:29:00.561Z,100691.52
2022-10-11T02:31:32.968Z,100691.52
2022-10-11T02:34:09.841Z,100689.00
2022-10-11T02:36:47.408Z,100693.42
2022-10-11T02:39:21.749Z,100696.28
2022-10-11T02:41:56.088Z,100699.30
2022-10-11T02:44:34.045Z,100702.20
2022-10-11T02:47:03.812Z,100700.77
2022-10-11T02:49:33.189Z,100700.94
2022-10-11T02:52:04.005Z,100702.21
2022-10-11T02:54:32.869Z,100696.67
2022-10-11T02:57:01.073Z,100701.58
2022-10-11T02:59:29.503Z,100703.17
2022-10-11T03:01:58.239Z,100699.02
2022-10-11T03:04:28.866Z,100701.27
2022-10-11T03:06:57.491Z,100707.56
2022-10-11T03:09:26.687Z,100711.79
2022-10-11T03:11:54.907Z,100708.59
2022-10-11T03:14:24.357Z,100706.02
2022-10-11T03:16:55.790Z,100708.61
2022-10-11T03:19:27.568Z,100711.46
2022-10-11T03:21:55.719Z,100708.97
2022-10-11T03:24:24.501Z,100709.28
2022-10-11T03:26:53.406Z,100710.65
2022-10-11T03:29:22.007Z,100713.73
2022-10-11T03:31:51.080Z,100711.69
2022-10-11T03:34:20.376Z,100713.18
2022-10-11T03:36:48.621Z,100719.45
2022-10-11T03:39:16.857Z,100717.98
2022-10-11T03:41:45.032Z,100726.21
2022-10-11T03:44:13.224Z,100730.21
2022-10-11T03:46:41.561Z,100736.77
2022-10-11T03:49:11.211Z,100733.36
2022-10-11T03:51:39.972Z,100729.64
2022-10-11T03:54:08.946Z,100723.80
2022-10-11T03:56:37.477Z,100726.28
2022-10-11T03:59:06.238Z,100732.16
2022-10-11T04:01:38.377Z,100727.95
2022-10-11T04:04:07.113Z,100729.77
2022-10-11T04:06:35.359Z,100735.91
2022-10-11T04:09:04.453Z,100743.29
2022-10-11T04:11:33.596Z,100738.02
2022-10-11T04:14:02.847Z,100736.90
2022-10-11T04:16:34.133Z,100738.45
2022-10-11T04:19:03.460Z,100736.02
2022-10-11T04:21:32.107Z,100732.77
2022-10-11T04:24:01.160Z,100732.04
2022-10-11T04:26:30.895Z,100734.48
2022-10-11T04:28:59.655Z,100732.70
2022-10-11T04:31:31.748Z,100733.92
2022-10-11T04:34:00.978Z,100742.27
2022-10-11T04:36:32.389Z,100748.80
2022-10-11T04:39:02.420Z,100754.42
2022-10-11T04:41:32.882Z,100758.42
2022-10-11T04:44:01.837Z,100763.34
2022-10-11T04:46:33.272Z,100767.10
2022-10-11T04:49:03.044Z,100768.42
2022-10-11T04:51:33.395Z,100770.00
2022-10-11T04:54:02.211Z,100769.42
2022-10-11T04:56:33.058Z,100766.92
2022-10-11T04:59:01.406Z,100766.30
2022-10-11T05:01:30.462Z,100774.38
2022-10-11T05:03:59.152Z,100771.48
2022-10-11T05:06:28.646Z,100777.75
2022-10-11T05:08:57.383Z,100781.62
2022-10-11T05:11:27.022Z,100777.95
2022-10-11T05:13:57.644Z,100780.82
2022-10-11T05:16:27.312Z,100788.41
2022-10-11T05:18:55.629Z,100790.35
2022-10-11T05:21:26.683Z,100792.42
2022-10-11T05:23:56.262Z,100796.58
2022-10-11T05:26:27.117Z,100801.86
2022-10-11T05:28:55.836Z,100797.79
2022-10-11T05:31:26.546Z,100796.45
2022-10-11T05:33:54.959Z,100798.66
2022-10-11T05:36:23.306Z,100799.12
2022-10-11T05:38:52.284Z,100801.73
2022-10-11T05:41:20.699Z,100807.21
2022-10-11T05:43:49.380Z,100809.91
2022-10-11T05:46:18.242Z,100811.45
2022-10-11T05:48:48.073Z,100813.86
2022-10-11T05:51:16.657Z,100816.95
2022-10-11T05:53:45.341Z,100816.91
2022-10-11T05:56:20.071Z,100813.70
2022-10-11T05:58:49.050Z,100811.40
2022-10-11T06:01:19.742Z,100816.45
2022-10-11T06:03:48.259Z,100821.30
2022-10-11T06:06:17.474Z,100829.08
2022-10-11T06:08:47.019Z,100836.06
2022-10-11T06:11:17.814Z,100837.54
2022-10-11T06:13:46.212Z,100836.08
2022-10-11T06:16:15.568Z,100835.36
2022-10-11T06:18:43.894Z,100841.73
2022-10-11T06:21:13.015Z,100849.02
2022-10-11T06:23:41.626Z,100852.56
2022-10-11T06:26:10.964Z,100863.45
2022-10-11T06:28:39.374Z,100868.27
2022-10-11T06:31:07.722Z,100876.66
2022-10-11T06:33:36.419Z,100879.46
2022-10-11T06:36:08.562Z,100883.34
2022-10-11T06:38:41.039Z,100888.54
2022-10-11T06:41:16.604Z,100892.77
2022-10-11T06:43:45.266Z,100895.44
2022-10-11T06:46:13.657Z,100900.54
2022-10-11T06:48:43.770Z,100899.70
2022-10-11T06:51:13.374Z,100905.66
2022-10-11T06:53:41.785Z,100907.45
2022-10-11T06:56:12.574Z,100907.85
2022-10-11T06:58:41.298Z,100910.80
2022-10-11T07:01:12.780Z,100913.75
2022-10-11T07:03:41.634Z,100916.02
2022-10-11T07:06:13.090Z,100925.29
2022-10-11T07:08:42.321Z,100931.56
2022-10-11T07:11:12.633Z,100930.39
2022-10-11T07:13:41.747Z,100936.09
2022-10-11T07:16:12.513Z,100936.66
2022-10-11T07:18:41.057Z,100942.80
2022-10-11T07:21:12.439Z,100946.64
2022-10-11T07:23:41.364Z,100954.70
2022-10-11T07:26:10.862Z,100959.03
2022-10-11T07:28:39.816Z,100965.76
2022-10-11T07:31:10.387Z,100971.30
2022-10-11T07:33:38.758Z,100970.24
2022-10-11T07:36:09.852Z,100979.13
2022-10-11T07:38:40.848Z,100977.34
2022-10-11T07:41:09.566Z,100982.06
2022-10-11T07:43:38.743Z,100987.15
2022-10-11T07:46:07.811Z,100987.27
2022-10-11T07:48:37.663Z,100994.08
2022-10-11T07:51:09.497Z,100994.23
2022-10-11T07:53:42.304Z,100997.30
2022-10-11T07:56:13.489Z,101007.61
2022-10-11T07:58:42.438Z,101010.84
2022-10-11T08:01:13.846Z,101010.52
2022-10-11T08:03:42.160Z,101010.27
2022-10-11T08:06:15.508Z,101013.54
2022-10-11T08:08:44.444Z,101012.55
2022-10-11T08:11:21.690Z,101018.13
2022-10-11T08:13:51.219Z,101014.77
2022-10-11T08:16:20.868Z,101015.80
2022-10-11T08:18:49.332Z,101020.52
2022-10-11T08:21:18.621Z,101022.62
2022-10-11T08:23:47.044Z,101022.83
2022-10-11T08:26:15.533Z,101026.84
2022-10-11T08:28:43.907Z,101029.09
2022-10-11T08:31:14.761Z,101030.80
2022-10-11T08:33:43.595Z,101030.67
2022-10-11T08:36:12.902Z,101030.52
2022-10-11T08:38:41.784Z,101031.85
2022-10-11T08:41:27.511Z,101032.87
2022-10-11T08:44:06.287Z,101036.80
2022-10-11T08:46:38.481Z,101038.55
2022-10-11T08:49:09.208Z,101038.98
2022-10-11T08:51:42.954Z,101039.09
2022-10-11T08:54:17.776Z,101037.80
2022-10-11T08:56:46.928Z,101038.29
2022-10-11T08:59:27.221Z,101037.61
2022-10-11T09:02:03.090Z,101036.04
2022-10-11T09:04:31.835Z,101035.71
2022-10-11T09:07:07.107Z,101037.02
2022-10-11T09:09:55.679Z,101043.09
2022-10-11T09:12:40.793Z,101044.08
2022-10-11T09:15:20.363Z,101049.42
2022-10-11T09:18:04.177Z,101051.59
2022-10-11T09:20:43.841Z,101054.84
2022-10-11T09:23:23.177Z,101057.33
2022-10-11T09:25:58.917Z,101058.27
2022-10-11T09:28:46.796Z,101065.66
2022-10-11T09:31:16.451Z,101066.05
2022-10-11T09:33:48.133Z,101066.71
2022-10-11T09:36:23.878Z,101067.55
2022-10-11T09:39:04.237Z,101065.41
2022-10-11T09:41:41.527Z,101069.77
2022-10-11T09:44:19.146Z,101069.53
2022-10-11T09:46:49.248Z,101071.41
2022-10-11T09:49:21.412Z,101075.64
2022-10-11T09:51:54.180Z,101074.41
2022-10-11T09:54:38.070Z,101081.84
2022-10-11T09:57:17.183Z,101086.77
2022-10-11T09:59:59.241Z,101086.00
2022-10-11T10:02:29.179Z,101090.13
2022-10-11T10:05:16.730Z,101090.84
2022-10-11T10:08:04.525Z,101092.32
2022-10-11T10:10:38.551Z,101094.20
2022-10-11T10:13:20.563Z,101095.41
2022-10-11T10:15:51.504Z,101099.11
2022-10-11T10:18:23.856Z,101095.39
2022-10-11T10:20:54.522Z,101089.16
2022-10-11T10:23:26.245Z,101090.16
2022-10-11T10:26:12.152Z,101092.90
2022-10-11T10:28:56.457Z,101099.36
2022-10-11T10:31:32.834Z,101103.77
2022-10-11T10:34:16.395Z,101104.36
2022-10-11T10:36:51.903Z,101105.05
2022-10-11T10:39:29.628Z,101106.36
2022-10-11T10:42:01.050Z,101109.13
2022-10-11T10:44:30.365Z,101111.60
2022-10-11T10:47:09.242Z,101115.96
2022-10-11T10:49:59.581Z,101116.96
2022-10-11T10:52:46.124Z,101112.91
2022-10-11T10:55:23.249Z,101109.84
2022-10-11T10:58:09.268Z,101109.55
2022-10-11T11:00:46.063Z,101117.04
2022-10-11T11:03:23.415Z,101122.16
2022-10-11T11:06:01.610Z,101122.04
2022-10-11T11:08:47.172Z,101122.65
2022-10-11T11:11:31.574Z,101125.62
2022-10-11T11:14:14.531Z,101130.27
2022-10-11T11:16:49.811Z,101130.59
2022-10-11T11:19:37.301Z,101130.27
2022-10-11T11:22:11.015Z,101130.63
2022-10-11T11:24:52.280Z,101129.30
2022-10-11T11:27:37.864Z,101132.02
2022-10-11T11:30:11.093Z,101131.61
2022-10-11T11:32:48.349Z,101129.60
2022-10-11T11:35:24.260Z,101133.15
2022-10-11T11:38:02.525Z,101134.36
2022-10-11T11:40:37.855Z,101134.69
2022-10-11T11:43:15.268Z,101139.15
2022-10-11T11:45:49.689Z,101136.45
2022-10-11T11:48:20.194Z,101138.29
2022-10-11T11:50:55.477Z,101142.83
2022-10-11T11:53:34.774Z,101142.44
2022-10-11T11:56:08.709Z,101143.70
2022-10-11T11:58:45.584Z,101153.18
2022-10-11T12:01:28.860Z,101154.16
2022-10-11T12:04:10.890Z,101157.60
2022-10-11T12:06:52.384Z,101157.83
2022-10-11T12:09:26.889Z,101160.29
2022-10-11T12:11:58.440Z,101165.05
2022-10-11T12:14:35.161Z,101168.07
2022-10-11T12:17:16.716Z,101171.17
2022-10-11T12:20:04.489Z,101170.61
2022-10-11T12:23:00.139Z,101170.17
2022-10-11T12:25:43.815Z,101166.67
2022-10-11T12:28:48.675Z,101169.18
2022-10-11T12:31:22.758Z,101168.72
2022-10-11T12:34:02.604Z,101166.50
2022-10-11T12:36:38.056Z,101164.61
2022-10-11T12:39:50.668Z,101167.55
2022-10-11T12:42:27.243Z,101168.39
2022-10-11T12:45:33.216Z,101171.22
2022-10-11T12:48:25.594Z,101174.20
2022-10-11T12:51:14.543Z,101173.73
2022-10-11T12:54:25.585Z,101179.06
2022-10-11T12:57:09.661Z,101179.80
2022-10-11T12:59:44.313Z,101185.77
2022-10-11T13:02:28.744Z,101187.70
2022-10-11T13:05:08.696Z,101187.42
2022-10-11T13:07:40.777Z,101190.14
2022-10-11T13:10:14.585Z,101190.44
2022-10-11T13:12:46.236Z,101195.50
2022-10-11T13:15:18.817Z,101193.62
2022-10-11T13:17:50.149Z,101193.91
2022-10-11T13:20:24.124Z,101194.28
2022-10-11T13:22:55.169Z,101192.54
2022-10-11T13:25:26.040Z,101193.92
2022-10-11T13:27:57.671Z,101189.75
2022-10-11T13:30:30.305Z,101191.59
2022-10-11T13:33:00.767Z,101192.23
2022-10-11T13:35:34.305Z,101190.86
2022-10-11T13:38:08.242Z,101190.66
2022-10-11T13:40:38.635Z,101185.98
2022-10-11T13:43:07.811Z,101188.59
2022-10-11T13:45:38.674Z,101191.92
2022-10-11T13:48:14.935Z,101197.06
2022-10-11T13:50:50.560Z,101198.45
2022-10-11T13:53:24.571Z,101200.73
2022-10-11T13:55:56.689Z,101199.50
2022-10-11T13:58:30.745Z,101197.58
2022-10-11T14:01:01.556Z,101198.33
2022-10-11T14:03:40.284Z,101202.41
2022-10-11T14:06:09.219Z,101207.60
2022-10-11T14:08:43.077Z,101206.54
2022-10-11T14:11:13.742Z,101209.29
2022-10-11T14:13:45.608Z,101210.89
2022-10-11T14:16:31.415Z,101213.67
2022-10-11T14:19:10.871Z,101215.32
2022-10-11T14:21:51.214Z,101215.23
2022-10-11T14:24:20.787Z,101215.63
2022-10-11T14:26:51.179Z,101214.54
2022-10-11T14:29:23.696Z,101216.04
2022-10-11T14:31:55.470Z,101215.55
2022-10-11T14:34:25.678Z,101218.92
2022-10-11T14:36:54.352Z,101222.23
2022-10-11T14:39:24.169Z,101222.02
2022-10-11T14:41:53.708Z,101224.23
2022-10-11T14:44:23.850Z,101221.14
2022-10-11T14:46:54.544Z,101225.15
2022-10-11T14:49:25.512Z,101231.44
2022-10-11T14:51:56.167Z,101228.95
2022-10-11T14:54:26.944Z,101227.85
2022-10-11T14:56:57.718Z,101229.41
2022-10-11T14:59:31.861Z,101230.65
2022-10-11T15:02:00.719Z,101233.13
2022-10-11T15:04:30.817Z,101237.11
2022-10-11T15:07:00.030Z,101237.13
2022-10-11T15:09:31.879Z,101239.27
2022-10-11T15:12:00.302Z,101242.67
2022-10-11T15:14:28.678Z,101245.42
2022-10-11T15:16:58.802Z,101243.27
2022-10-11T15:19:27.121Z,101244.70
2022-10-11T15:21:55.648Z,101243.13
2022-10-11T15:24:24.069Z,101248.44
2022-10-11T15:26:52.474Z,101249.90
2022-10-11T15:29:23.529Z,101255.25
2022-10-11T15:31:51.916Z,101254.36
2022-10-11T15:34:20.806Z,101255.20
2022-10-11T15:36:49.614Z,101260.24
2022-10-11T15:39:26.097Z,101262.21
2022-10-11T15:41:54.598Z,101266.35
2022-10-11T15:44:23.503Z,101266.89
2022-10-11T15:46:52.500Z,101270.05
2022-10-11T15:49:20.914Z,101270.71
2022-10-11T15:51:50.226Z,101278.16
2022-10-11T15:54:18.552Z,101279.84
2022-10-11T15:56:47.311Z,101284.78
2022-10-11T15:59:16.041Z,101286.42
2022-10-11T16:01:44.529Z,101286.13
2022-10-11T16:04:13.106Z,101289.00
2022-10-11T16:06:41.594Z,101291.98
2022-10-11T16:09:10.516Z,101296.73
2022-10-11T16:11:39.201Z,101300.48
2022-10-11T16:14:07.572Z,101302.31
2022-10-11T16:16:36.518Z,101307.46
2022-10-11T16:19:04.947Z,101312.36
2022-10-11T16:21:33.187Z,101316.02
2022-10-11T16:24:01.562Z,101315.00
2022-10-11T16:26:32.087Z,101317.47
2022-10-11T16:29:00.599Z,101321.31
2022-10-11T16:31:31.767Z,101319.73
2022-10-11T16:34:00.222Z,101325.53
2022-10-11T16:36:31.553Z,101323.64
2022-10-11T16:39:02.694Z,101322.04
2022-10-11T16:41:33.566Z,101322.59
2022-10-11T16:44:02.632Z,101323.33
2022-10-11T16:46:33.093Z,101323.59
2022-10-11T16:49:01.486Z,101327.77
2022-10-11T16:51:31.030Z,101326.98
2022-10-11T16:54:00.650Z,101330.52
2022-10-11T16:56:30.859Z,101324.66
2022-10-11T16:58:59.197Z,101327.17
2022-10-11T17:01:27.527Z,101328.19
2022-10-11T17:03:57.579Z,101333.02
2022-10-11T17:06:26.449Z,101332.55
2022-10-11T17:08:55.272Z,101338.29
2022-10-11T17:11:24.424Z,101345.06
2022-10-11T17:13:53.639Z,101342.96
2022-10-11T17:16:22.898Z,101344.48
2022-10-11T17:18:51.314Z,101342.27
2022-10-11T17:21:21.366Z,101344.46
2022-10-11T17:23:50.196Z,101346.21
2022-10-11T17:26:24.242Z,101346.66
2022-10-11T17:28:53.292Z,101345.45
2022-10-11T17:31:22.014Z,101349.84
2022-10-11T17:33:50.678Z,101352.33
2022-10-11T17:36:22.836Z,101350.58
2022-10-11T17:38:52.070Z,101354.77
2022-10-11T17:41:21.209Z,101356.57
2022-10-11T17:43:50.364Z,101358.50
2022-10-11T17:46:22.071Z,101357.94
2022-10-11T17:48:54.368Z,101359.50
2022-10-11T17:51:23.284Z,101362.48
2022-10-11T17:53:52.285Z,101364.52
2022-10-11T17:56:28.182Z,101363.13
2022-10-11T17:58:59.726Z,101361.72
2022-10-11T18:01:32.728Z,101365.63
2022-10-11T18:04:04.448Z,101366.52
2022-10-11T18:06:38.987Z,101365.83
2022-10-11T18:09:07.922Z,101366.77
2022-10-11T18:11:36.655Z,101364.77
2022-10-11T18:14:04.903Z,101368.04
2022-10-11T18:16:34.614Z,101369.60
2022-10-11T18:19:05.949Z,101369.42
2022-10-11T18:21:37.268Z,101368.81
2022-10-11T18:24:10.194Z,101368.11
2022-10-11T18:26:39.193Z,101369.30
2022-10-11T18:29:07.475Z,101373.77
2022-10-11T18:31:36.379Z,101376.56
2022-10-11T18:34:07.786Z,101380.25
2022-10-11T18:36:36.419Z,101376.26
2022-10-11T18:39:07.498Z,101382.39
2022-10-11T18:41:37.820Z,101384.92
2022-10-11T18:44:08.666Z,101389.18
2022-10-11T18:46:40.070Z,101393.83
2022-10-11T18:49:08.851Z,101399.32
2022-10-11T18:51:39.081Z,101399.04
2022-10-11T18:54:10.090Z,101397.50
2022-10-11T18:56:38.429Z,101393.83
2022-10-11T18:59:07.495Z,101390.84
2022-10-11T19:01:38.750Z,101394.64
2022-10-11T19:04:10.081Z,101395.88
2022-10-11T19:06:40.655Z,101400.52
2022-10-11T19:09:10.943Z,101401.53
2022-10-11T19:11:39.932Z,101401.36
2022-10-11T19:14:10.870Z,101402.29
2022-10-11T19:16:42.330Z,101400.21
2022-10-11T19:19:12.036Z,101401.77
2022-10-11T19:21:41.684Z,101402.02
2022-10-11T19:24:10.145Z,101401.05
2022-10-11T19:26:40.655Z,101401.95
2022-10-11T19:29:11.323Z,101407.53
2022-10-11T19:31:43.980Z,101405.58
2022-10-11T19:34:12.967Z,101409.73
2022-10-11T19:36:42.258Z,101410.69
2022-10-11T19:39:12.943Z,101408.17
2022-10-11T19:41:42.421Z,101410.55
2022-10-11T19:44:11.323Z,101413.61
2022-10-11T19:46:55.399Z,101414.76
2022-10-11T19:49:25.443Z,101414.48
2022-10-11T19:51:55.643Z,101414.91
2022-10-11T19:54:24.747Z,101416.21
2022-10-11T19:56:53.015Z,101419.56
2022-10-11T19:59:21.533Z,101421.89
2022-10-11T20:01:53.107Z,101421.60
2022-10-11T20:07:10.353Z,101417.38
2022-10-11T20:09:38.903Z,101418.08
2022-10-11T20:12:08.308Z,101422.05
2022-10-11T20:14:37.055Z,101427.52
2022-10-11T20:17:05.918Z,101429.05
2022-10-11T20:19:34.424Z,101427.66
2022-10-11T20:22:02.962Z,101432.33
2022-10-11T20:24:34.076Z,101429.79
2022-10-11T20:27:04.061Z,101434.50
2022-10-11T20:29:32.694Z,101433.84
2022-10-11T20:32:00.899Z,101432.35
2022-10-11T20:34:30.718Z,101434.83
2022-10-11T20:36:59.616Z,101435.16
2022-10-11T20:39:28.067Z,101438.84
2022-10-11T20:41:56.656Z,101440.77
2022-10-11T20:44:25.668Z,101434.45
2022-10-11T20:46:54.143Z,101435.32
2022-10-11T20:49:22.520Z,101437.14
2022-10-11T20:51:50.750Z,101437.91
2022-10-11T20:54:19.168Z,101441.00
2022-10-11T20:56:47.633Z,101439.89
2022-10-11T20:59:15.816Z,101440.09
2022-10-11T21:01:46.773Z,101440.98
2022-10-11T21:04:19.256Z,101439.96
2022-10-11T21:06:48.533Z,101436.84
2022-10-11T21:09:18.569Z,101436.85
2022-10-11T21:11:47.226Z,101437.52
2022-10-11T21:14:15.748Z,101445.63
2022-10-11T21:16:44.024Z,101444.71
2022-10-11T21:19:15.080Z,101447.25
2022-10-11T21:21:44.071Z,101442.60
2022-10-11T21:24:12.417Z,101445.23
2022-10-11T21:26:40.584Z,101443.80
2022-10-11T21:29:08.862Z,101441.95
2022-10-11T21:31:37.634Z,101443.79
2022-10-11T21:34:06.822Z,101446.88
2022-10-11T21:36:35.221Z,101448.07
2022-10-11T21:39:03.655Z,101450.20
2022-10-11T21:41:33.626Z,101452.10
2022-10-11T21:44:01.960Z,101458.23
2022-10-11T21:47:01.136Z,101454.30
2022-10-11T21:49:22.167Z,101453.46
2022-10-11T21:51:51.158Z,101456.21
2022-10-11T21:54:19.791Z,101459.14
2022-10-11T21:56:48.230Z,101459.80
2022-10-11T21:59:16.880Z,101459.90
2022-10-11T22:01:45.169Z,101461.61
2022-10-11T22:04:13.666Z,101463.86
2022-10-11T22:06:44.078Z,101466.16
2022-10-11T22:09:12.526Z,101461.27
2022-10-11T22:11:41.080Z,101460.63
2022-10-11T22:14:09.476Z,101464.47
2022-10-11T22:16:37.974Z,101464.80
2022-10-11T22:19:06.544Z,101462.86
2022-10-11T22:21:34.957Z,101460.35
2022-10-11T22:24:03.912Z,101462.78
2022-10-11T22:26:35.790Z,101461.55
2022-10-11T22:29:04.304Z,101461.73
2022-10-11T22:31:34.314Z,101461.55
2022-10-11T22:34:02.975Z,101465.69
2022-10-11T22:36:33.060Z,101466.39
2022-10-11T22:39:07.127Z,101472.91
2022-10-11T22:41:36.471Z,101471.73
2022-10-11T22:44:05.983Z,101478.20
2022-10-11T22:46:34.703Z,101480.09
2022-10-11T22:49:03.693Z,101482.54
2022-10-11T22:51:32.813Z,101480.94
2022-10-11T22:54:01.448Z,101479.26
2022-10-11T22:56:32.806Z,101480.27
2022-10-11T22:59:01.412Z,101480.73
2022-10-11T23:01:30.024Z,101479.33
2022-10-11T23:03:59.463Z,101481.10
2022-10-11T23:06:27.952Z,101481.33
2022-10-11T23:08:56.713Z,101477.90
2022-10-11T23:11:25.371Z,101481.21
2022-10-11T23:13:54.362Z,101479.61
2022-10-11T23:16:22.769Z,101482.05
2022-10-11T23:18:53.566Z,101484.60
2022-10-11T23:21:22.458Z,101484.77
2022-10-11T23:23:54.899Z,101487.41
2022-10-11T23:26:23.816Z,101486.60
2022-10-11T23:28:55.270Z,101482.71
2022-10-11T23:31:23.727Z,101490.31
2022-10-11T23:33:53.725Z,101487.13
2022-10-11T23:36:24.950Z,101486.98
2022-10-11T23:38:55.232Z,101491.22
2022-10-11T23:41:26.808Z,101490.95
2022-10-11T23:43:56.594Z,101492.20
2022-10-11T23:46:25.444Z,101496.09
2022-10-11T23:48:54.008Z,101498.08
2022-10-11T23:51:23.094Z,101497.95
2022-10-11T23:53:51.858Z,101496.23
2022-10-11T23:56:20.681Z,101498.54
2022-10-11T23:58:54.855Z,101495.62
